PWSweather.com
Personal Weather Stations
Station Observations
KKSTOPEK1
South Central , Topeka, KS 66611

South Central Topeka, KS 66611

Lat: 39.03, Lon: -95.71

Elevation: 945

Station Type: Davis Vantage Vue

http://tallgrasspixels.net/wx/wx.html

High Low Average
Temperature 71.1°F21.7°C 62.4°F16.9°C 65.9°F18.8°C
Dew Point 65.3°F18.5°C 61.2°F16.2°C 63.0°F17.2°C
Winds 2.1 mph 3.4 kmh Calm Calm Calm SCalm S
Wind Gusts 6.0 mph9.7 kmh -- 1.0 mph1.6 kmh
Humidity 97% 78% 91%
Pressure 29.90 in1012.5 mb 29.77 in1008.1 mb -
Precipitation 0.03 in0.8 mm - -
Hour Temp Dew Point Humidity Winds Wind Gusts Pressure Precip Precip Rate Daily Precip Total
12:00 AM 62.3°F16.8°C 61.4°F16.3°C 97% 3.2 mph ENE5.1 kmh ENE 5.0 mph8.0 kmh 29.92 in1013.2 mb - 0.00 in0.0 mm 0.00 in0.0 mm
12:10 AM 62.4°F16.9°C 61.5°F16.4°C 97% 2.5 mph ENE4.0 kmh ENE 5.0 mph8.0 kmh 29.91 in1012.9 mb - 0.00 in0.0 mm 0.00 in0.0 mm
12:20 AM 62.5°F16.9°C 61.6°F16.4°C 97% 1.8 mph N2.9 kmh N 8.0 mph12.9 kmh 29.90 in1012.5 mb - 0.00 in0.0 mm 0.00 in0.0 mm
12:30 AM 62.6°F17.0°C 61.7°F16.5°C 97% 1.0 mph E1.6 kmh E 1.0 mph1.6 kmh 29.90 in1012.5 mb - 0.00 in0.0 mm 0.00 in0.0 mm
12:40 AM 62.6°F17.0°C 61.7°F16.5°C 97% 0.6 mph ENE1.0 kmh ENE 1.0 mph1.6 kmh 29.89 in1012.2 mb - 0.00 in0.0 mm 0.00 in0.0 mm
12:50 AM 62.9°F17.2°C 62.0°F16.7°C 97% 2.1 mph SE3.4 kmh SE 3.0 mph4.8 kmh 29.89 in1012.2 mb - 0.00 in0.0 mm 0.00 in0.0 mm
01:00 AM 63.2°F17.3°C 62.3°F16.8°C 97% 1.8 mph ENE2.9 kmh ENE 6.0 mph9.7 kmh 29.90 in1012.5 mb - 0.00 in0.0 mm 0.00 in0.0 mm
01:10 AM 63.3°F17.4°C 62.1°F16.7°C 96% 2.1 mph E3.4 kmh E 3.0 mph4.8 kmh 29.89 in1012.2 mb - 0.00 in0.0 mm 0.00 in0.0 mm
01:20 AM 63.4°F17.4°C 62.3°F16.8°C 96% 0.9 mph E1.4 kmh E 2.0 mph3.2 kmh 29.89 in1012.2 mb - 0.00 in0.0 mm 0.00 in0.0 mm
01:30 AM 63.4°F17.4°C 62.2°F16.8°C 96% 0.9 mph E1.4 kmh E 3.0 mph4.8 kmh 29.89 in1012.2 mb - 0.00 in0.0 mm 0.00 in0.0 mm
01:40 AM 63.4°F17.4°C 62.2°F16.8°C 96% 0.9 mph E1.4 kmh E 1.0 mph1.6 kmh 29.88 in1011.9 mb - 0.00 in0.0 mm 0.00 in0.0 mm
01:50 AM 63.4°F17.4°C 62.2°F16.8°C 96% Calm Calm -- 29.88 in1011.9 mb - 0.00 in0.0 mm 0.00 in0.0 mm
02:00 AM 63.5°F17.5°C 62.6°F17.0°C 97% 0.3 mph ESE0.5 kmh ESE 1.0 mph1.6 kmh 29.88 in1011.9 mb - 0.00 in0.0 mm 0.00 in0.0 mm
02:10 AM 63.6°F17.6°C 62.7°F17.1°C 97% 0.8 mph ESE1.3 kmh ESE 2.0 mph3.2 kmh 29.87 in1011.5 mb - 0.00 in0.0 mm 0.00 in0.0 mm
02:20 AM 63.8°F17.7°C 62.9°F17.2°C 97% 1.3 mph E2.1 kmh E 2.0 mph3.2 kmh 29.86 in1011.2 mb - 0.00 in0.0 mm 0.00 in0.0 mm
02:30 AM 64.0°F17.8°C 63.1°F17.3°C 97% Calm Calm -- 29.87 in1011.5 mb - 0.00 in0.0 mm 0.00 in0.0 mm
02:40 AM 64.2°F17.9°C 63.3°F17.4°C 97% Calm Calm 1.0 mph1.6 kmh 29.87 in1011.5 mb - 0.00 in0.0 mm 0.00 in0.0 mm
02:50 AM 64.3°F17.9°C 63.4°F17.4°C 97% 0.7 mph SSW1.1 kmh SSW 2.0 mph3.2 kmh 29.86 in1011.2 mb - 0.00 in0.0 mm 0.00 in0.0 mm
03:00 AM 64.3°F17.9°C 63.4°F17.4°C 97% 0.7 mph ENE1.1 kmh ENE 2.0 mph3.2 kmh 29.85 in1010.8 mb - 0.00 in0.0 mm 0.00 in0.0 mm
03:10 AM 64.2°F17.9°C 63.3°F17.4°C 97% 0.1 mph E0.2 kmh E 1.0 mph1.6 kmh 29.85 in1010.8 mb - 0.00 in0.0 mm 0.00 in0.0 mm
03:20 AM 64.1°F17.8°C 63.2°F17.3°C 97% Calm Calm -- 29.86 in1011.2 mb - 0.00 in0.0 mm 0.00 in0.0 mm
03:30 AM 64.1°F17.8°C 63.2°F17.3°C 97% Calm Calm 1.0 mph1.6 kmh 29.86 in1011.2 mb - 0.00 in0.0 mm 0.00 in0.0 mm
03:40 AM 64.1°F17.8°C 63.2°F17.3°C 97% 0.3 mph SE0.5 kmh SE 1.0 mph1.6 kmh 29.85 in1010.8 mb - 0.00 in0.0 mm 0.00 in0.0 mm
03:50 AM 64.2°F17.9°C 63.3°F17.4°C 97% 1.0 mph E1.6 kmh E 1.0 mph1.6 kmh 29.85 in1010.8 mb - 0.00 in0.0 mm 0.00 in0.0 mm
04:00 AM 64.2°F17.9°C 63.3°F17.4°C 97% 0.1 mph E0.2 kmh E 1.0 mph1.6 kmh 29.84 in1010.5 mb - 0.00 in0.0 mm 0.00 in0.0 mm
04:10 AM 64.2°F17.9°C 63.3°F17.4°C 97% Calm Calm -- 29.84 in1010.5 mb - 0.00 in0.0 mm 0.00 in0.0 mm
04:20 AM 64.3°F17.9°C 63.4°F17.4°C 97% 0.4 mph E0.6 kmh E 1.0 mph1.6 kmh 29.84 in1010.5 mb - 0.00 in0.0 mm 0.00 in0.0 mm
04:30 AM 64.2°F17.9°C 63.4°F17.4°C 97% 0.2 mph SE0.3 kmh SE 1.0 mph1.6 kmh 29.84 in1010.5 mb - 0.00 in0.0 mm 0.00 in0.0 mm
04:40 AM 64.2°F17.9°C 63.3°F17.4°C 97% Calm Calm -- 29.84 in1010.5 mb - 0.00 in0.0 mm 0.00 in0.0 mm
04:50 AM 64.0°F17.8°C 63.1°F17.3°C 97% Calm Calm -- 29.84 in1010.5 mb - 0.00 in0.0 mm 0.00 in0.0 mm
05:00 AM 63.9°F17.7°C 63.0°F17.2°C 97% Calm Calm -- 29.84 in1010.5 mb - 0.00 in0.0 mm 0.00 in0.0 mm
05:10 AM 63.7°F17.6°C 62.8°F17.1°C 97% Calm Calm -- 29.84 in1010.5 mb - 0.00 in0.0 mm 0.00 in0.0 mm
05:20 AM 63.6°F17.6°C 62.8°F17.1°C 97% Calm Calm -- 29.84 in1010.5 mb - 0.00 in0.0 mm 0.00 in0.0 mm
05:30 AM 63.5°F17.5°C 62.6°F17.0°C 97% 0.1 mph SW0.2 kmh SW 1.0 mph1.6 kmh 29.84 in1010.5 mb - 0.00 in0.0 mm 0.00 in0.0 mm
05:40 AM 63.3°F17.4°C 62.4°F16.9°C 97% Calm Calm -- 29.84 in1010.5 mb - 0.00 in0.0 mm 0.00 in0.0 mm
05:50 AM 63.1°F17.3°C 62.2°F16.8°C 97% 0.9 mph WSW1.4 kmh WSW 1.0 mph1.6 kmh 29.84 in1010.5 mb - 0.00 in0.0 mm 0.00 in0.0 mm
06:00 AM 63.0°F17.2°C 61.8°F16.6°C 96% 0.3 mph S0.5 kmh S -- 29.84 in1010.5 mb - 0.00 in0.0 mm 0.00 in0.0 mm
06:10 AM 62.9°F17.2°C 61.8°F16.6°C 96% 0.1 mph SW0.2 kmh SW -- 29.84 in1010.5 mb - 0.00 in0.0 mm 0.00 in0.0 mm
06:20 AM 62.9°F17.2°C 61.7°F16.5°C 96% 0.2 mph SW0.3 kmh SW 1.0 mph1.6 kmh 29.85 in1010.8 mb - 0.00 in0.0 mm 0.00 in0.0 mm
06:30 AM 62.8°F17.1°C 61.6°F16.4°C 96% 0.4 mph SW0.6 kmh SW 1.0 mph1.6 kmh 29.86 in1011.2 mb - 0.00 in0.0 mm 0.00 in0.0 mm
06:40 AM 62.7°F17.1°C 61.5°F16.4°C 96% 0.1 mph SW0.2 kmh SW 1.0 mph1.6 kmh 29.86 in1011.2 mb - 0.00 in0.0 mm 0.00 in0.0 mm
06:50 AM 62.6°F17.0°C 61.4°F16.3°C 96% 0.2 mph SW0.3 kmh SW 1.0 mph1.6 kmh 29.86 in1011.2 mb - 0.00 in0.0 mm 0.00 in0.0 mm
07:00 AM 62.5°F16.9°C 61.3°F16.3°C 96% Calm Calm -- 29.87 in1011.5 mb - 0.00 in0.0 mm 0.00 in0.0 mm
07:10 AM 62.4°F16.9°C 61.2°F16.2°C 96% Calm Calm 1.0 mph1.6 kmh 29.88 in1011.9 mb - 0.00 in0.0 mm 0.00 in0.0 mm
07:20 AM 62.5°F16.9°C 61.3°F16.3°C 96% Calm Calm -- 29.87 in1011.5 mb - 0.00 in0.0 mm 0.00 in0.0 mm
07:30 AM 62.6°F17.0°C 61.7°F16.5°C 97% Calm Calm -- 29.87 in1011.5 mb - 0.00 in0.0 mm 0.00 in0.0 mm
07:40 AM 62.8°F17.1°C 61.9°F16.6°C 97% Calm Calm -- 29.86 in1011.2 mb - 0.00 in0.0 mm 0.00 in0.0 mm
07:50 AM 63.1°F17.3°C 62.2°F16.8°C 97% Calm Calm -- 29.86 in1011.2 mb - 0.00 in0.0 mm 0.00 in0.0 mm
08:00 AM 63.5°F17.5°C 62.3°F16.8°C 96% Calm Calm 1.0 mph1.6 kmh 29.85 in1010.8 mb - 0.00 in0.0 mm 0.00 in0.0 mm
08:10 AM 63.7°F17.6°C 62.2°F16.8°C 95% 0.2 mph SW0.3 kmh SW 1.0 mph1.6 kmh 29.86 in1011.2 mb - 0.00 in0.0 mm 0.00 in0.0 mm
08:20 AM 64.2°F17.9°C 63.0°F17.2°C 96% 0.1 mph SW0.2 kmh SW 1.0 mph1.6 kmh 29.86 in1011.2 mb - 0.00 in0.0 mm 0.00 in0.0 mm
08:30 AM 64.6°F18.1°C 62.8°F17.1°C 94% 0.7 mph SW1.1 kmh SW 1.0 mph1.6 kmh 29.85 in1010.8 mb - 0.00 in0.0 mm 0.00 in0.0 mm
08:40 AM 65.2°F18.4°C 63.4°F17.4°C 94% Calm Calm 1.0 mph1.6 kmh 29.85 in1010.8 mb - 0.00 in0.0 mm 0.00 in0.0 mm
08:50 AM 65.9°F18.8°C 63.8°F17.7°C 93% Calm Calm 1.0 mph1.6 kmh 29.85 in1010.8 mb - 0.00 in0.0 mm 0.00 in0.0 mm
09:00 AM 66.6°F19.2°C 63.9°F17.7°C 91% 1.0 mph S1.6 kmh S 5.0 mph8.0 kmh 29.85 in1010.8 mb - 0.01 in0.3 mm 0.01 in0.3 mm
09:10 AM 67.1°F19.5°C 64.1°F17.8°C 90% 0.8 mph ESE1.3 kmh ESE 1.0 mph1.6 kmh 29.85 in1010.8 mb - 0.01 in0.3 mm 0.01 in0.3 mm
09:20 AM 67.5°F19.7°C 63.8°F17.7°C 88% 0.7 mph SW1.1 kmh SW 3.0 mph4.8 kmh 29.85 in1010.8 mb - 0.00 in0.0 mm 0.01 in0.3 mm
09:30 AM 67.9°F19.9°C 63.9°F17.7°C 87% 1.0 mph W1.6 kmh W 3.0 mph4.8 kmh 29.85 in1010.8 mb - 0.00 in0.0 mm 0.01 in0.3 mm
09:40 AM 68.3°F20.2°C 63.6°F17.6°C 85% 0.9 mph SE1.4 kmh SE 2.0 mph3.2 kmh 29.85 in1010.8 mb - 0.00 in0.0 mm 0.01 in0.3 mm
09:50 AM 68.9°F20.5°C 64.5°F18.1°C 86% 0.2 mph SW0.3 kmh SW 1.0 mph1.6 kmh 29.85 in1010.8 mb - 0.00 in0.0 mm 0.01 in0.3 mm
10:00 AM 68.8°F20.4°C 63.8°F17.7°C 84% 0.2 mph S0.3 kmh S 2.0 mph3.2 kmh 29.86 in1011.2 mb - 0.00 in0.0 mm 0.01 in0.3 mm
10:10 AM 68.7°F20.4°C 63.6°F17.6°C 84% 0.2 mph SW0.3 kmh SW 1.0 mph1.6 kmh 29.86 in1011.2 mb - 0.00 in0.0 mm 0.01 in0.3 mm
10:20 AM 68.5°F20.3°C 63.8°F17.7°C 85% 0.1 mph WNW0.2 kmh WNW 1.0 mph1.6 kmh 29.86 in1011.2 mb - 0.00 in0.0 mm 0.01 in0.3 mm
10:30 AM 68.2°F20.1°C 63.5°F17.5°C 85% Calm Calm -- 29.86 in1011.2 mb - 0.00 in0.0 mm 0.01 in0.3 mm
10:40 AM 68.6°F20.3°C 63.9°F17.7°C 85% Calm Calm 1.0 mph1.6 kmh 29.86 in1011.2 mb - 0.00 in0.0 mm 0.01 in0.3 mm
10:50 AM 68.7°F20.4°C 64.0°F17.8°C 85% Calm Calm 1.0 mph1.6 kmh 29.86 in1011.2 mb - 0.00 in0.0 mm 0.01 in0.3 mm
11:00 AM 68.6°F20.3°C 63.5°F17.5°C 84% 0.3 mph SSE0.5 kmh SSE 1.0 mph1.6 kmh 29.87 in1011.5 mb - 0.00 in0.0 mm 0.01 in0.3 mm
11:10 AM 68.4°F20.2°C 63.7°F17.6°C 85% 0.4 mph SE0.6 kmh SE 1.0 mph1.6 kmh 29.87 in1011.5 mb - 0.00 in0.0 mm 0.01 in0.3 mm
11:20 AM 68.2°F20.1°C 63.9°F17.7°C 86% Calm Calm -- 29.87 in1011.5 mb - 0.00 in0.0 mm 0.01 in0.3 mm
11:30 AM 68.4°F20.2°C 64.0°F17.8°C 86% Calm Calm -- 29.87 in1011.5 mb - 0.00 in0.0 mm 0.01 in0.3 mm
11:40 AM 68.1°F20.1°C 64.1°F17.8°C 87% 0.1 mph SW0.2 kmh SW 1.0 mph1.6 kmh 29.87 in1011.5 mb - 0.00 in0.0 mm 0.01 in0.3 mm
11:50 AM 68.3°F20.2°C 64.3°F17.9°C 87% Calm Calm 1.0 mph1.6 kmh 29.87 in1011.5 mb - 0.00 in0.0 mm 0.01 in0.3 mm
12:00 PM 68.7°F20.4°C 64.0°F17.8°C 85% 0.5 mph SSW0.8 kmh SSW 1.0 mph1.6 kmh 29.87 in1011.5 mb - 0.00 in0.0 mm 0.01 in0.3 mm
12:10 PM 69.0°F20.6°C 64.6°F18.1°C 86% 1.1 mph SW1.8 kmh SW 1.0 mph1.6 kmh 29.86 in1011.2 mb - 0.00 in0.0 mm 0.01 in0.3 mm
12:20 PM 69.5°F20.8°C 64.8°F18.2°C 85% 0.8 mph SW1.3 kmh SW 2.0 mph3.2 kmh 29.86 in1011.2 mb - 0.00 in0.0 mm 0.01 in0.3 mm
12:30 PM 70.6°F21.4°C 65.1°F18.4°C 83% 0.3 mph SE0.5 kmh SE 2.0 mph3.2 kmh 29.85 in1010.8 mb - 0.00 in0.0 mm 0.02 in0.5 mm
12:40 PM 70.7°F21.5°C 64.2°F17.9°C 80% 0.6 mph SSW1.0 kmh SSW 1.0 mph1.6 kmh 29.85 in1010.8 mb - 0.01 in0.3 mm 0.02 in0.5 mm
12:50 PM 70.8°F21.6°C 64.3°F17.9°C 80% 0.3 mph SW0.5 kmh SW -- 29.86 in1011.2 mb - 0.00 in0.0 mm 0.02 in0.5 mm
01:00 PM 71.1°F21.7°C 64.9°F18.3°C 81% 0.2 mph S0.3 kmh S 1.0 mph1.6 kmh 29.85 in1010.8 mb - 0.00 in0.0 mm 0.02 in0.5 mm
01:10 PM 71.1°F21.7°C 65.3°F18.5°C 82% Calm Calm -- 29.85 in1010.8 mb - 0.00 in0.0 mm 0.02 in0.5 mm
01:20 PM 71.1°F21.7°C 65.3°F18.5°C 82% Calm Calm 1.0 mph1.6 kmh 29.85 in1010.8 mb - 0.00 in0.0 mm 0.02 in0.5 mm
01:30 PM 71.0°F21.7°C 64.9°F18.3°C 81% 0.3 mph SW0.5 kmh SW 1.0 mph1.6 kmh 29.84 in1010.5 mb - 0.01 in0.3 mm 0.03 in0.8 mm
01:40 PM 70.9°F21.6°C 64.8°F18.2°C 81% Calm Calm 1.0 mph1.6 kmh 29.84 in1010.5 mb - 0.00 in0.0 mm 0.03 in0.8 mm
01:50 PM 71.1°F21.7°C 65.3°F18.5°C 82% Calm Calm -- 29.84 in1010.5 mb - 0.00 in0.0 mm 0.03 in0.8 mm
02:00 PM 70.8°F21.6°C 63.6°F17.6°C 78% 0.9 mph SSW1.4 kmh SSW 2.0 mph3.2 kmh 29.84 in1010.5 mb - 0.00 in0.0 mm 0.03 in0.8 mm
02:10 PM 70.8°F21.6°C 64.3°F17.9°C 80% 0.2 mph S0.3 kmh S 1.0 mph1.6 kmh 29.84 in1010.5 mb - 0.00 in0.0 mm 0.03 in0.8 mm
02:20 PM 70.6°F21.4°C 63.4°F17.4°C 78% 0.6 mph S1.0 kmh S 2.0 mph3.2 kmh 29.84 in1010.5 mb - 0.00 in0.0 mm 0.03 in0.8 mm
02:30 PM 70.5°F21.4°C 64.0°F17.8°C 80% 0.2 mph SSW0.3 kmh SSW 1.0 mph1.6 kmh 29.84 in1010.5 mb - 0.00 in0.0 mm 0.03 in0.8 mm
02:40 PM 70.6°F21.4°C 64.5°F18.1°C 81% 0.2 mph SSE0.3 kmh SSE 1.0 mph1.6 kmh 29.83 in1010.2 mb - 0.00 in0.0 mm 0.03 in0.8 mm
02:50 PM 70.5°F21.4°C 64.4°F18.0°C 81% 0.8 mph SSW1.3 kmh SSW 1.0 mph1.6 kmh 29.83 in1010.2 mb - 0.00 in0.0 mm 0.03 in0.8 mm
03:00 PM 70.3°F21.3°C 64.2°F17.9°C 81% Calm Calm -- 29.83 in1010.2 mb - 0.00 in0.0 mm 0.03 in0.8 mm
03:10 PM 70.2°F21.2°C 64.5°F18.1°C 82% Calm Calm 1.0 mph1.6 kmh 29.83 in1010.2 mb - 0.00 in0.0 mm 0.03 in0.8 mm
03:20 PM 70.0°F21.1°C 64.2°F17.9°C 82% 0.4 mph S0.6 kmh S 1.0 mph1.6 kmh 29.83 in1010.2 mb - 0.00 in0.0 mm 0.03 in0.8 mm
03:30 PM 69.9°F21.1°C 64.2°F17.9°C 82% 0.1 mph S0.2 kmh S -- 29.83 in1010.2 mb - 0.00 in0.0 mm 0.03 in0.8 mm
03:40 PM 69.6°F20.9°C 63.9°F17.7°C 82% 0.6 mph S1.0 kmh S 1.0 mph1.6 kmh 29.83 in1010.2 mb - 0.00 in0.0 mm 0.03 in0.8 mm
03:50 PM 69.4°F20.8°C 64.0°F17.8°C 83% 0.8 mph S1.3 kmh S 2.0 mph3.2 kmh 29.83 in1010.2 mb - 0.00 in0.0 mm 0.03 in0.8 mm
04:00 PM 69.1°F20.6°C 64.1°F17.8°C 84% 0.1 mph SSW0.2 kmh SSW 1.0 mph1.6 kmh 29.83 in1010.2 mb - 0.00 in0.0 mm 0.03 in0.8 mm
04:10 PM 68.8°F20.4°C 64.5°F18.1°C 86% 0.5 mph SE0.8 kmh SE 3.0 mph4.8 kmh 29.83 in1010.2 mb - 0.00 in0.0 mm 0.03 in0.8 mm
04:20 PM 68.6°F20.3°C 63.9°F17.7°C 85% 0.2 mph E0.3 kmh E 1.0 mph1.6 kmh 29.83 in1010.2 mb - 0.00 in0.0 mm 0.03 in0.8 mm
04:30 PM 68.6°F20.3°C 63.9°F17.7°C 85% 1.0 mph SE1.6 kmh SE 2.0 mph3.2 kmh 29.83 in1010.2 mb - 0.00 in0.0 mm 0.03 in0.8 mm
04:40 PM 68.4°F20.2°C 64.0°F17.8°C 86% 0.7 mph S1.1 kmh S 1.0 mph1.6 kmh 29.83 in1010.2 mb - 0.00 in0.0 mm 0.03 in0.8 mm
04:50 PM 68.2°F20.1°C 63.5°F17.5°C 85% 0.9 mph SSW1.4 kmh SSW 3.0 mph4.8 kmh 29.83 in1010.2 mb - 0.00 in0.0 mm 0.03 in0.8 mm
05:00 PM 68.1°F20.1°C 63.8°F17.7°C 86% Calm Calm -- 29.82 in1009.8 mb - 0.00 in0.0 mm 0.03 in0.8 mm
05:10 PM 68.0°F20.0°C 63.3°F17.4°C 85% 0.6 mph SSE1.0 kmh SSE 2.0 mph3.2 kmh 29.83 in1010.2 mb - 0.00 in0.0 mm 0.03 in0.8 mm
05:20 PM 67.8°F19.9°C 63.5°F17.5°C 86% 0.3 mph SE0.5 kmh SE 3.0 mph4.8 kmh 29.83 in1010.2 mb - 0.00 in0.0 mm 0.03 in0.8 mm
05:30 PM 67.8°F19.9°C 63.8°F17.7°C 87% Calm Calm -- 29.83 in1010.2 mb - 0.00 in0.0 mm 0.03 in0.8 mm
05:40 PM 67.6°F19.8°C 63.3°F17.4°C 86% 0.9 mph S1.4 kmh S 3.0 mph4.8 kmh 29.82 in1009.8 mb - 0.00 in0.0 mm 0.03 in0.8 mm
05:50 PM 67.4°F19.7°C 63.4°F17.4°C 87% Calm Calm -- 29.82 in1009.8 mb - 0.00 in0.0 mm 0.03 in0.8 mm
06:00 PM 67.3°F19.6°C 63.6°F17.6°C 88% Calm Calm -- 29.82 in1009.8 mb - 0.00 in0.0 mm 0.03 in0.8 mm
06:10 PM 67.1°F19.5°C 63.4°F17.4°C 88% 0.1 mph SSE0.2 kmh SSE 1.0 mph1.6 kmh 29.82 in1009.8 mb - 0.00 in0.0 mm 0.03 in0.8 mm
06:20 PM 66.8°F19.3°C 62.8°F17.1°C 87% Calm Calm -- 29.81 in1009.5 mb - 0.00 in0.0 mm 0.03 in0.8 mm
06:30 PM 66.8°F19.3°C 62.8°F17.1°C 87% Calm Calm 1.0 mph1.6 kmh 29.81 in1009.5 mb - 0.00 in0.0 mm 0.03 in0.8 mm
06:40 PM 66.8°F19.3°C 62.8°F17.1°C 87% Calm Calm -- 29.80 in1009.1 mb - 0.00 in0.0 mm 0.03 in0.8 mm
06:50 PM 66.6°F19.2°C 62.9°F17.2°C 88% Calm Calm -- 29.80 in1009.1 mb - 0.00 in0.0 mm 0.03 in0.8 mm
07:00 PM 66.3°F19.1°C 62.7°F17.1°C 88% 0.2 mph ESE0.3 kmh ESE 2.0 mph3.2 kmh 29.80 in1009.1 mb - 0.00 in0.0 mm 0.03 in0.8 mm
07:10 PM 66.2°F19.0°C 62.8°F17.1°C 89% Calm Calm -- 29.79 in1008.8 mb - 0.00 in0.0 mm 0.03 in0.8 mm
07:20 PM 66.0°F18.9°C 62.7°F17.1°C 89% Calm Calm -- 29.78 in1008.5 mb - 0.00 in0.0 mm 0.03 in0.8 mm
07:30 PM 65.8°F18.8°C 62.5°F16.9°C 89% Calm Calm -- 29.78 in1008.5 mb - 0.00 in0.0 mm 0.03 in0.8 mm
07:40 PM 65.7°F18.7°C 62.7°F17.1°C 90% Calm Calm -- 29.77 in1008.1 mb - 0.00 in0.0 mm 0.03 in0.8 mm
07:50 PM 65.6°F18.7°C 62.6°F17.0°C 90% Calm Calm -- 29.78 in1008.5 mb - 0.00 in0.0 mm 0.03 in0.8 mm
08:00 PM 65.4°F18.6°C 62.7°F17.1°C 91% 0.1 mph SW0.2 kmh SW 1.0 mph1.6 kmh 29.78 in1008.5 mb - 0.00 in0.0 mm 0.03 in0.8 mm
08:10 PM 65.3°F18.5°C 62.6°F17.0°C 91% Calm Calm 1.0 mph1.6 kmh 29.78 in1008.5 mb - 0.00 in0.0 mm 0.03 in0.8 mm
08:20 PM 65.1°F18.4°C 62.7°F17.1°C 92% Calm Calm 1.0 mph1.6 kmh 29.78 in1008.5 mb - 0.00 in0.0 mm 0.03 in0.8 mm
08:30 PM 64.9°F18.3°C 62.5°F16.9°C 92% Calm Calm -- 29.78 in1008.5 mb - 0.00 in0.0 mm 0.03 in0.8 mm
08:40 PM 64.7°F18.2°C 62.3°F16.8°C 92% 0.7 mph SSW1.1 kmh SSW 2.0 mph3.2 kmh 29.78 in1008.5 mb - 0.00 in0.0 mm 0.03 in0.8 mm
08:50 PM 64.6°F18.1°C 62.2°F16.8°C 92% Calm Calm -- 29.78 in1008.5 mb - 0.00 in0.0 mm 0.03 in0.8 mm
09:00 PM 64.5°F18.1°C 62.1°F16.7°C 92% 0.1 mph WSW0.2 kmh WSW 1.0 mph1.6 kmh 29.78 in1008.5 mb - 0.00 in0.0 mm 0.03 in0.8 mm
09:10 PM 64.3°F17.9°C 62.2°F16.8°C 93% Calm Calm -- 29.77 in1008.1 mb - 0.00 in0.0 mm 0.03 in0.8 mm
09:20 PM 64.1°F17.8°C 62.0°F16.7°C 93% Calm Calm -- 29.78 in1008.5 mb - 0.00 in0.0 mm 0.03 in0.8 mm
09:30 PM 63.9°F17.7°C 62.1°F16.7°C 94% Calm Calm 1.0 mph1.6 kmh 29.78 in1008.5 mb - 0.00 in0.0 mm 0.03 in0.8 mm
09:40 PM 63.8°F17.7°C 62.0°F16.7°C 94% Calm Calm -- 29.78 in1008.5 mb - 0.00 in0.0 mm 0.03 in0.8 mm
09:50 PM 63.6°F17.6°C 61.9°F16.6°C 94% Calm Calm -- 29.78 in1008.5 mb - 0.00 in0.0 mm 0.03 in0.8 mm
10:00 PM 63.5°F17.5°C 61.7°F16.5°C 94% Calm Calm -- 29.79 in1008.8 mb - 0.00 in0.0 mm 0.03 in0.8 mm
10:10 PM 63.5°F17.5°C 62.0°F16.7°C 95% Calm Calm -- 29.80 in1009.1 mb - 0.00 in0.0 mm 0.03 in0.8 mm
10:20 PM 63.4°F17.4°C 61.9°F16.6°C 95% Calm Calm -- 29.80 in1009.1 mb - 0.00 in0.0 mm 0.03 in0.8 mm
10:30 PM 63.4°F17.4°C 61.9°F16.6°C 95% Calm Calm -- 29.80 in1009.1 mb - 0.00 in0.0 mm 0.03 in0.8 mm
10:40 PM 63.3°F17.4°C 61.8°F16.6°C 95% Calm Calm -- 29.79 in1008.8 mb - 0.00 in0.0 mm 0.03 in0.8 mm
10:50 PM 63.2°F17.3°C 61.7°F16.5°C 95% Calm Calm -- 29.79 in1008.8 mb - 0.00 in0.0 mm 0.03 in0.8 mm
11:00 PM 63.2°F17.3°C 61.7°F16.5°C 95% Calm Calm -- 29.78 in1008.5 mb - 0.00 in0.0 mm 0.03 in0.8 mm
11:10 PM 63.2°F17.3°C 61.7°F16.5°C 95% Calm Calm -- 29.78 in1008.5 mb - 0.00 in0.0 mm 0.03 in0.8 mm
11:20 PM 63.0°F17.2°C 61.5°F16.4°C 95% Calm Calm -- 29.79 in1008.8 mb - 0.00 in0.0 mm 0.03 in0.8 mm
11:30 PM 62.8°F17.1°C 61.4°F16.3°C 95% Calm Calm -- 29.78 in1008.5 mb - 0.00 in0.0 mm 0.03 in0.8 mm
11:40 PM 62.9°F17.2°C 61.7°F16.5°C 96% Calm Calm -- 29.78 in1008.5 mb - 0.00 in0.0 mm 0.03 in0.8 mm
11:50 PM 63.0°F17.2°C 61.8°F16.6°C 96% Calm Calm -- 29.79 in1008.8 mb - 0.00 in0.0 mm 0.03 in0.8 mm